Time;durP1;ratioP1;P1;durP2;ratioP2;P2;SDS_P1;SDS_P2;PMS_P1;PMS_P2;Temp;Humidity;BMP_temperature;BMP_pressure;BME280_temperature;BME280_humidity;BME280_pressure;Samples;Min_cycle;Max_cycle;Signal;HPM_P1;HPM_P2
2021/03/31 00:01:20;;;;;;;14.70;8.13;;;15.00;52.80;;;;;;5054341;28;20029;-81
2021/03/31 00:03:45;;;;;;;18.73;10.20;;;15.00;53.30;;;;;;5055741;28;20468;-81
2021/03/31 00:06:11;;;;;;;20.00;10.68;;;15.00;54.70;;;;;;5054211;28;20037;-82
2021/03/31 00:08:38;;;;;;;19.27;9.45;;;15.00;53.70;;;;;;5054320;28;20021;-81
2021/03/31 00:11:04;;;;;;;20.33;11.57;;;15.00;53.40;;;;;;5054366;28;20021;-81
2021/03/31 00:13:30;;;;;;;17.48;9.85;;;14.90;52.80;;;;;;5054975;28;20462;-81
2021/03/31 00:15:57;;;;;;;14.55;7.97;;;14.90;52.90;;;;;;5055430;28;20025;-81
2021/03/31 00:18:23;;;;;;;17.48;8.95;;;14.90;53.40;;;;;;5055598;28;20025;-81
2021/03/31 00:20:50;;;;;;;20.73;11.35;;;14.90;54.20;;;;;;5054273;28;20013;-80
2021/03/31 00:23:22;;;;;;;17.90;9.20;;;14.90;52.90;;;;;;5053968;28;20018;-81
2021/03/31 00:25:48;;;;;;;16.65;9.00;;;14.90;52.80;;;;;;5055618;28;20017;-80
2021/03/31 00:28:14;;;;;;;19.67;9.50;;;14.80;52.40;;;;;;5053272;28;20020;-81
2021/03/31 00:30:41;;;;;;;14.52;7.78;;;14.80;52.50;;;;;;5054759;28;20017;-80
2021/03/31 00:33:07;;;;;;;17.90;9.00;;;14.90;52.50;;;;;;5054801;28;20032;-81
2021/03/31 00:35:33;;;;;;;14.07;7.28;;;14.80;52.90;;;;;;5054736;28;20021;-80
2021/03/31 00:37:59;;;;;;;14.50;6.82;;;14.80;54.30;;;;;;5053759;28;20071;-80
2021/03/31 00:40:38;;;;;;;19.55;10.93;;;14.80;53.80;;;;;;5053506;28;20021;-81
2021/03/31 00:43:04;;;;;;;18.77;9.55;;;14.80;53.20;;;;;;5053664;28;20025;-81
2021/03/31 00:45:30;;;;;;;16.58;9.77;;;14.70;53.20;;;;;;5052914;28;20028;-81
2021/03/31 00:47:56;;;;;;;22.13;12.60;;;14.70;53.20;;;;;;5053357;28;20013;-81
2021/03/31 00:50:21;;;;;;;20.33;11.43;;;14.70;52.30;;;;;;5055700;28;20024;-82
2021/03/31 00:52:50;;;;;;;18.88;9.80;;;14.70;51.50;;;;;;5053519;28;20080;-81
2021/03/31 00:55:18;;;;;;;22.90;11.27;;;14.70;51.40;;;;;;5054781;28;20101;-80
2021/03/31 00:57:44;;;;;;;20.17;10.80;;;14.60;51.30;;;;;;5053120;28;20419;-81
2021/03/31 01:00:11;;;;;;;22.13;12.40;;;14.60;52.00;;;;;;5053292;28;20420;-81
2021/03/31 01:02:37;;;;;;;25.73;12.60;;;14.60;51.10;;;;;;5052940;28;20525;-80
2021/03/31 01:05:11;;;;;;;17.45;9.50;;;14.60;50.80;;;;;;5053136;28;20433;-81
2021/03/31 01:07:38;;;;;;;18.80;9.00;;;14.50;51.10;;;;;;5054380;28;20055;-81
2021/03/31 01:10:04;;;;;;;19.48;9.60;;;14.60;51.80;;;;;;5053209;28;20028;-79
2021/03/31 01:12:51;;;;;;;16.60;8.10;;;14.50;51.30;;;;;;5052817;28;20039;-81
2021/03/31 01:15:23;;;;;;;16.17;8.75;;;14.50;51.90;;;;;;5053166;28;20025;-81
2021/03/31 01:18:21;;;;;;;20.55;10.45;;;14.50;51.70;;;;;;5053304;28;20074;-81
2021/03/31 01:21:14;;;;;;;18.40;10.80;;;14.50;50.70;;;;;;5054568;28;20077;-81
2021/03/31 01:24:01;;;;;;;19.17;9.52;;;14.40;50.40;;;;;;5052658;28;20017;-81
2021/03/31 01:26:47;;;;;;;18.05;8.77;;;14.40;51.20;;;;;;5053663;28;20025;-81
2021/03/31 01:29:50;;;;;;;19.00;9.65;;;14.40;51.40;;;;;;5052878;28;20117;-81
2021/03/31 01:32:20;;;;;;;20.67;9.55;;;14.40;51.30;;;;;;5052587;28;20381;-81
2021/03/31 01:34:58;;;;;;;18.23;10.10;;;14.30;52.70;;;;;;5053752;28;20452;-81
2021/03/31 01:37:33;;;;;;;19.13;9.55;;;14.30;51.60;;;;;;5052824;28;20426;-81
2021/03/31 01:40:03;;;;;;;20.05;10.68;;;14.30;51.70;;;;;;5052372;28;20112;-81
2021/03/31 01:42:32;;;;;;;20.55;10.68;;;14.20;51.30;;;;;;5052275;28;20021;-81
2021/03/31 01:45:01;;;;;;;22.88;11.13;;;14.20;50.90;;;;;;5053507;28;20020;-80
2021/03/31 01:47:30;;;;;;;23.00;10.17;;;14.20;51.10;;;;;;5052228;28;20108;-81
2021/03/31 01:49:57;;;;;;;18.60;10.00;;;14.20;51.00;;;;;;5052494;28;20255;-81
2021/03/31 01:52:24;;;;;;;18.17;9.80;;;14.10;51.70;;;;;;5052291;28;20056;-82
2021/03/31 01:54:51;;;;;;;18.13;9.25;;;14.10;51.50;;;;;;5052155;28;20017;-81
2021/03/31 01:57:18;;;;;;;19.02;10.32;;;14.10;51.60;;;;;;5051748;28;20021;-81
2021/03/31 01:59:46;;;;;;;16.73;9.32;;;14.00;52.40;;;;;;5052813;28;20103;-81
2021/03/31 02:02:12;;;;;;;20.10;10.38;;;14.00;53.10;;;;;;5053232;28;20032;-81
2021/03/31 02:04:39;;;;;;;22.92;11.15;;;14.00;52.20;;;;;;5052868;28;20375;-81
2021/03/31 02:07:08;;;;;;;23.17;12.82;;;13.90;51.60;;;;;;5051658;28;20041;-81
2021/03/31 02:09:42;;;;;;;21.40;11.00;;;14.00;51.00;;;;;;5051615;28;20079;-80
2021/03/31 02:12:11;;;;;;;21.50;10.35;;;13.90;51.60;;;;;;5051620;28;20096;-80
2021/03/31 02:14:43;;;;;;;18.77;9.63;;;13.90;52.10;;;;;;5051423;28;20021;-81
2021/03/31 02:17:13;;;;;;;20.50;10.25;;;13.90;52.40;;;;;;5052229;28;20453;-81
2021/03/31 02:19:40;;;;;;;22.77;11.68;;;13.80;52.20;;;;;;5051578;28;20013;-80
2021/03/31 02:22:10;;;;;;;21.10;11.98;;;13.80;52.60;;;;;;5053132;28;20071;-81
2021/03/31 02:24:36;;;;;;;27.40;14.25;;;13.70;51.70;;;;;;5034752;28;20035;-80
2021/03/31 02:27:04;;;;;;;26.83;14.15;;;13.70;51.40;;;;;;5052691;28;20029;-79
2021/03/31 02:29:30;;;;;;;22.42;11.05;;;13.70;51.00;;;;;;5052063;28;20063;-80
2021/03/31 02:31:56;;;;;;;20.48;9.88;;;13.60;50.90;;;;;;5052281;28;20025;-80
2021/03/31 02:34:24;;;;;;;22.75;12.07;;;13.60;51.70;;;;;;5052508;28;20024;-81
2021/03/31 02:36:51;;;;;;;23.50;12.52;;;13.50;51.80;;;;;;5051328;28;20025;-81
2021/03/31 02:39:19;;;;;;;22.25;11.15;;;13.50;51.50;;;;;;5052713;28;20028;-82
2021/03/31 02:41:49;;;;;;;21.55;11.80;;;13.50;51.30;;;;;;5051238;28;20052;-82
2021/03/31 02:44:16;;;;;;;24.63;13.18;;;13.40;51.10;;;;;;5051173;28;20017;-82
2021/03/31 02:46:43;;;;;;;22.73;11.73;;;13.40;51.30;;;;;;5052776;28;20091;-82
2021/03/31 02:49:10;;;;;;;19.40;10.65;;;13.40;51.10;;;;;;5052777;28;20056;-82
2021/03/31 02:51:37;;;;;;;24.67;12.13;;;13.30;51.60;;;;;;5052391;28;20035;-81
2021/03/31 02:54:04;;;;;;;24.73;13.80;;;13.20;51.40;;;;;;5051308;28;20480;-82
2021/03/31 02:56:32;;;;;;;21.60;11.93;;;13.20;51.40;;;;;;5051094;28;20025;-81
2021/03/31 02:59:00;;;;;;;24.52;13.27;;;13.20;52.10;;;;;;5052217;28;20436;-81
2021/03/31 03:01:27;;;;;;;24.02;12.55;;;13.10;51.30;;;;;;5052559;28;20341;-81
2021/03/31 03:03:58;;;;;;;23.25;12.30;;;13.10;51.20;;;;;;5050882;28;20024;-81
2021/03/31 03:06:25;;;;;;;22.90;11.35;;;13.10;51.20;;;;;;5051106;28;20068;-82
2021/03/31 03:08:54;;;;;;;22.33;10.95;;;13.00;51.30;;;;;;5050542;28;20029;-81
2021/03/31 03:11:21;;;;;;;22.02;11.70;;;13.00;51.30;;;;;;5051045;28;20138;-81
2021/03/31 03:13:48;;;;;;;24.48;13.40;;;13.00;51.10;;;;;;5050593;28;20418;-80
2021/03/31 03:16:15;;;;;;;18.50;11.05;;;13.00;51.00;;;;;;5051294;28;20457;-81
2021/03/31 03:18:41;;;;;;;22.95;13.50;;;13.00;51.40;;;;;;5051127;28;20017;-81
2021/03/31 03:21:08;;;;;;;14.40;7.60;;;12.90;51.50;;;;;;5051345;28;20521;-82
2021/03/31 03:23:34;;;;;;;27.52;16.48;;;12.90;54.10;;;;;;5050685;28;20017;-82
2021/03/31 03:26:00;;;;;;;21.10;11.85;;;12.90;53.10;;;;;;5050963;28;20025;-81
2021/03/31 03:28:29;;;;;;;29.42;14.88;;;12.80;53.10;;;;;;5050840;28;20056;-81
2021/03/31 03:30:56;;;;;;;20.63;11.18;;;12.80;53.10;;;;;;5051790;28;20096;-81
2021/03/31 03:33:22;;;;;;;26.30;14.30;;;12.80;52.80;;;;;;5050353;28;20057;-80
2021/03/31 03:35:48;;;;;;;20.63;11.57;;;12.80;53.50;;;;;;5050304;28;20059;-81
2021/03/31 03:38:14;;;;;;;24.63;13.48;;;12.70;53.10;;;;;;5050777;28;20021;-80
2021/03/31 03:40:43;;;;;;;20.92;11.45;;;12.70;53.20;;;;;;5050547;28;20044;-81
2021/03/31 03:43:09;;;;;;;23.67;13.93;;;12.70;52.80;;;;;;5050810;28;20021;-82
2021/03/31 03:45:39;;;;;;;31.65;14.43;;;12.70;52.50;;;;;;5051571;28;20464;-81
2021/03/31 03:48:05;;;;;;;22.95;11.50;;;12.60;52.30;;;;;;5050816;28;20013;-79
2021/03/31 03:50:31;;;;;;;27.73;14.05;;;12.60;52.60;;;;;;5052009;28;20087;-80
2021/03/31 03:52:57;;;;;;;28.05;15.13;;;12.60;52.70;;;;;;5050303;28;20068;-82
2021/03/31 03:55:24;;;;;;;24.23;14.02;;;12.60;52.60;;;;;;5051927;28;20131;-81
2021/03/31 03:57:51;;;;;;;23.73;13.32;;;12.50;52.60;;;;;;5051736;28;20024;-81
2021/03/31 04:00:20;;;;;;;25.77;14.38;;;12.50;52.60;;;;;;5051893;28;20021;-81
2021/03/31 04:02:56;;;;;;;24.52;13.75;;;12.50;52.60;;;;;;5050568;28;20028;-81
2021/03/31 04:05:22;;;;;;;20.35;11.88;;;12.50;52.40;;;;;;5050663;28;20013;-81
2021/03/31 04:07:48;;;;;;;26.58;13.82;;;12.40;52.60;;;;;;5050258;28;20397;-81
2021/03/31 04:10:15;;;;;;;29.40;17.40;;;12.40;52.60;;;;;;5050519;28;20013;-81
2021/03/31 04:12:42;;;;;;;27.95;15.15;;;12.40;52.60;;;;;;5051308;28;20033;-81
2021/03/31 04:15:10;;;;;;;25.88;15.13;;;12.40;52.50;;;;;;5050526;28;20445;-81
2021/03/31 04:17:39;;;;;;;25.40;13.05;;;12.40;52.30;;;;;;5050490;28;20021;-81
2021/03/31 04:20:09;;;;;;;27.27;13.13;;;12.40;52.70;;;;;;5051987;28;20021;-82
2021/03/31 04:22:34;;;;;;;25.10;13.77;;;12.30;52.90;;;;;;5053409;28;20021;-82
2021/03/31 04:25:00;;;;;;;30.75;15.93;;;12.30;53.10;;;;;;5053561;28;20025;-82
2021/03/31 04:27:28;;;;;;;27.05;15.90;;;12.30;53.00;;;;;;5053845;28;20067;-81
2021/03/31 04:29:54;;;;;;;27.27;14.57;;;12.30;53.20;;;;;;5054788;28;20021;-82
2021/03/31 04:32:20;;;;;;;25.95;13.38;;;12.30;53.10;;;;;;5053855;28;20096;-82
2021/03/31 04:34:46;;;;;;;34.63;15.68;;;12.30;53.50;;;;;;5053600;28;20021;-81
2021/03/31 04:37:15;;;;;;;27.30;15.40;;;12.30;53.50;;;;;;5055205;28;20020;-82
2021/03/31 04:39:42;;;;;;;28.27;15.13;;;12.30;53.30;;;;;;5053565;28;20028;-81
2021/03/31 04:42:08;;;;;;;25.17;14.80;;;12.30;53.50;;;;;;5055205;28;20052;-81
2021/03/31 04:44:33;;;;;;;28.38;15.63;;;12.30;53.70;;;;;;5053634;28;20028;-82
2021/03/31 04:47:03;;;;;;;25.25;12.82;;;12.20;54.50;;;;;;5054873;28;20017;-81
2021/03/31 04:49:29;;;;;;;23.77;12.88;;;12.20;53.80;;;;;;5053860;28;20013;-81
2021/03/31 04:51:55;;;;;;;26.02;15.98;;;12.20;54.10;;;;;;5053513;28;20032;-82
2021/03/31 04:54:20;;;;;;;27.65;16.08;;;12.20;54.30;;;;;;5054582;28;20079;-82
2021/03/31 04:56:46;;;;;;;26.58;14.75;;;12.10;54.00;;;;;;5053261;28;20116;-82
2021/03/31 04:59:12;;;;;;;25.15;14.88;;;12.10;53.80;;;;;;5054953;28;20029;-83
2021/03/31 05:01:38;;;;;;;29.02;15.52;;;12.10;54.10;;;;;;5054903;28;20017;-83
2021/03/31 05:04:03;;;;;;;27.58;14.73;;;12.00;54.10;;;;;;5053399;28;20339;-83
2021/03/31 05:06:29;;;;;;;23.38;13.25;;;12.00;54.40;;;;;;5052995;28;20063;-81
2021/03/31 05:08:54;;;;;;;26.08;14.30;;;12.10;55.10;;;;;;5054188;28;20097;-80
2021/03/31 05:11:20;;;;;;;25.45;13.45;;;12.00;55.50;;;;;;5054481;28;20041;-81
2021/03/31 05:13:45;;;;;;;28.85;13.75;;;12.00;55.70;;;;;;5052886;28;20025;-81
2021/03/31 05:16:11;;;;;;;27.50;14.38;;;12.00;56.00;;;;;;5054738;28;20016;-82
2021/03/31 05:18:37;;;;;;;25.95;12.85;;;12.00;55.50;;;;;;5054002;28;20021;-80
2021/03/31 05:21:03;;;;;;;26.67;15.27;;;11.90;56.50;;;;;;5055756;28;20024;-81
2021/03/31 05:23:28;;;;;;;26.63;15.18;;;11.80;56.00;;;;;;5053898;28;20514;-80
2021/03/31 05:25:54;;;;;;;29.50;17.10;;;11.70;55.30;;;;;;5054592;28;20017;-81
2021/03/31 05:28:20;;;;;;;25.38;14.90;;;11.70;55.30;;;;;;5055918;28;20020;-81
2021/03/31 05:30:45;;;;;;;26.50;14.52;;;11.70;55.60;;;;;;5054007;28;20021;-81
2021/03/31 05:33:11;;;;;;;24.30;14.50;;;11.80;56.20;;;;;;5070036;28;20365;-81
2021/03/31 05:35:36;;;;;;;27.33;16.02;;;11.80;56.60;;;;;;5072742;28;20367;-83
2021/03/31 05:38:02;;;;;;;23.25;13.55;;;11.80;56.50;;;;;;5072529;28;20020;-82
2021/03/31 05:40:31;;;;;;;27.67;16.52;;;11.80;55.90;;;;;;5072573;28;20082;-82
2021/03/31 05:42:58;;;;;;;30.47;16.40;;;11.70;55.60;;;;;;5072368;28;20073;-82
2021/03/31 05:45:25;;;;;;;35.45;17.08;;;11.70;55.50;;;;;;5072650;28;20267;-82
2021/03/31 05:47:51;;;;;;;29.52;17.63;;;11.70;55.90;;;;;;5072361;28;20107;-82
2021/03/31 05:50:17;;;;;;;34.70;17.30;;;11.70;56.00;;;;;;5072365;28;20058;-82
2021/03/31 05:52:45;;;;;;;26.45;12.88;;;11.70;56.10;;;;;;5072214;28;20024;-82
2021/03/31 05:55:13;;;;;;;32.45;16.40;;;11.80;56.10;;;;;;5072041;28;20062;-83
2021/03/31 05:57:40;;;;;;;30.23;16.35;;;11.80;55.60;;;;;;5072311;28;20024;-81
2021/03/31 06:00:13;;;;;;;29.27;16.92;;;11.90;55.70;;;;;;5071998;28;20078;-82
2021/03/31 06:02:43;;;;;;;28.60;17.13;;;11.90;55.70;;;;;;5072292;28;20054;-81
2021/03/31 06:05:10;;;;;;;28.13;15.18;;;11.90;55.40;;;;;;5072023;28;20103;-82
2021/03/31 06:07:39;;;;;;;29.23;16.65;;;11.90;55.20;;;;;;5072849;28;20366;-82
2021/03/31 06:10:32;;;;;;;26.73;15.27;;;12.00;55.10;;;;;;5073136;28;20017;-82
2021/03/31 06:13:04;;;;;;;29.83;17.23;;;12.00;55.20;;;;;;5071001;28;20036;-81
2021/03/31 06:15:45;;;;;;;28.17;15.95;;;12.20;55.20;;;;;;5072171;28;20017;-82
2021/03/31 06:18:15;;;;;;;35.75;17.50;;;12.20;55.00;;;;;;5071758;28;20024;-81
2021/03/31 06:21:00;;;;;;;31.77;18.65;;;12.30;54.70;;;;;;5063804;28;20028;-81
2021/03/31 06:26:30;;;;;;;35.85;17.58;;;12.50;54.40;;;;;;5060199;28;20465;-82
2021/03/31 06:28:58;;;;;;;32.65;17.17;;;12.60;54.00;;;;;;5061405;28;20091;-81
2021/03/31 06:31:32;;;;;;;28.02;17.45;;;12.70;53.90;;;;;;5062401;28;20650;-82
2021/03/31 06:34:24;;;;;;;28.73;16.70;;;12.80;54.00;;;;;;5060670;28;20067;-83
2021/03/31 06:36:56;;;;;;;27.77;15.80;;;13.00;54.00;;;;;;5055795;28;20033;-81
2021/03/31 06:39:31;;;;;;;26.88;15.75;;;13.10;54.00;;;;;;5063607;28;20020;-81
2021/03/31 06:42:14;;;;;;;33.85;19.15;;;13.20;53.80;;;;;;5068434;28;20364;-81
2021/03/31 06:45:05;;;;;;;25.63;15.60;;;13.30;54.00;;;;;;5054922;28;20024;-82
2021/03/31 06:50:00;;;;;;;30.27;18.42;;;13.50;52.90;;;;;;5072423;28;20020;-83
2021/03/31 06:52:26;;;;;;;30.77;18.00;;;13.60;52.90;;;;;;5071190;28;20107;-82
2021/03/31 06:54:54;;;;;;;31.08;16.25;;;13.70;52.80;;;;;;5071040;28;20012;-82
2021/03/31 06:57:28;;;;;;;25.70;15.43;;;13.90;52.30;;;;;;5071491;28;20449;-82
2021/03/31 07:00:05;;;;;;;28.33;17.55;;;14.00;51.60;;;;;;5071396;28;20457;-82
2021/03/31 07:02:32;;;;;;;25.25;14.65;;;14.10;51.20;;;;;;5071779;28;20016;-83
2021/03/31 07:04:58;;;;;;;25.38;16.52;;;14.20;51.60;;;;;;5071218;28;20016;-81
2021/03/31 07:07:41;;;;;;;25.00;14.63;;;14.30;50.70;;;;;;5071984;28;20433;-81
2021/03/31 07:10:15;;;;;;;28.33;15.70;;;14.50;50.40;;;;;;5071528;28;20112;-82
2021/03/31 07:12:43;;;;;;;25.98;15.70;;;14.60;50.00;;;;;;5071268;28;20086;-81
2021/03/31 07:15:11;;;;;;;21.98;13.80;;;14.70;49.40;;;;;;5074300;28;20385;-81
2021/03/31 07:17:41;;;;;;;30.50;16.67;;;14.90;49.60;;;;;;5068978;28;20051;-78
2021/03/31 07:20:07;;;;;;;25.00;16.93;;;15.00;49.10;;;;;;5069122;28;20115;-78
2021/03/31 07:22:33;;;;;;;21.40;12.88;;;15.10;47.80;;;;;;5070333;28;20028;-78
2021/03/31 07:24:59;;;;;;;23.20;13.18;;;15.20;49.90;;;;;;5071472;28;20016;-78
2021/03/31 07:27:25;;;;;;;18.15;9.10;;;15.30;56.90;;;;;;5070830;28;20042;-79
2021/03/31 07:30:05;;;;;;;13.63;7.22;;;15.50;57.50;;;;;;5070162;28;20032;-78
2021/03/31 07:32:44;;;;;;;29.45;17.25;;;15.50;58.20;;;;;;5070563;28;20029;-77
2021/03/31 07:35:11;;;;;;;34.85;17.05;;;15.60;48.40;;;;;;5071491;28;20350;-78
2021/03/31 07:37:37;;;;;;;27.13;17.92;;;15.70;47.50;;;;;;5071695;28;20021;-77
2021/03/31 07:40:07;;;;;;;33.72;17.60;;;15.80;46.50;;;;;;5071310;28;20054;-77
2021/03/31 07:42:33;;;;;;;30.60;16.87;;;15.90;46.50;;;;;;5070622;28;20519;-77
2021/03/31 07:45:01;;;;;;;26.15;17.35;;;16.10;46.40;;;;;;5071665;28;20016;-77
2021/03/31 07:47:28;;;;;;;28.77;16.48;;;16.40;46.00;;;;;;5070510;28;20031;-77
2021/03/31 07:49:55;;;;;;;27.40;17.65;;;16.50;45.50;;;;;;5070027;28;20441;-78
2021/03/31 07:52:20;;;;;;;25.52;15.73;;;16.70;45.30;;;;;;5071347;28;20103;-77
2021/03/31 07:54:46;;;;;;;27.25;17.10;;;16.80;43.90;;;;;;5069801;28;20449;-78
2021/03/31 07:57:31;;;;;;;23.10;16.23;;;16.90;44.20;;;;;;5074465;28;20095;-78
2021/03/31 07:59:56;;;;;;;27.70;17.58;;;17.00;46.20;;;;;;5075188;28;20023;-78
2021/03/31 08:02:23;;;;;;;29.80;17.90;;;17.20;50.20;;;;;;5074148;28;20183;-78
2021/03/31 08:04:49;;;;;;;27.40;17.05;;;17.30;44.00;;;;;;5074864;28;20055;-78
2021/03/31 08:07:29;;;;;;;28.35;17.83;;;17.40;43.00;;;;;;5073981;28;20076;-78
2021/03/31 08:10:31;;;;;;;27.60;17.17;;;17.40;43.20;;;;;;5073932;28;20013;-78
2021/03/31 08:13:26;;;;;;;26.15;17.05;;;17.60;43.40;;;;;;5073791;28;20070;-78
2021/03/31 08:15:53;;;;;;;25.55;16.75;;;17.80;42.90;;;;;;5073953;28;20111;-78
2021/03/31 08:18:19;;;;;;;30.85;18.38;;;18.10;43.10;;;;;;5075339;28;20044;-77
2021/03/31 08:20:45;;;;;;;29.75;17.88;;;18.30;42.90;;;;;;5074922;28;20472;-77
2021/03/31 08:23:11;;;;;;;31.05;17.30;;;18.50;41.80;;;;;;5073904;28;20024;-77
2021/03/31 08:25:37;;;;;;;30.17;19.00;;;18.60;41.90;;;;;;5073507;28;20016;-77
2021/03/31 08:28:08;;;;;;;27.65;17.42;;;18.80;41.80;;;;;;5073436;28;20023;-76
2021/03/31 08:30:39;;;;;;;30.67;18.35;;;19.00;41.20;;;;;;5073672;28;20026;-77
2021/03/31 08:33:06;;;;;;;31.95;18.45;;;19.10;42.50;;;;;;5073220;28;20063;-77
2021/03/31 08:35:33;;;;;;;24.75;16.00;;;19.20;41.80;;;;;;5074952;28;20017;-77
2021/03/31 08:37:59;;;;;;;23.73;15.13;;;19.40;43.60;;;;;;5074560;28;20025;-77
2021/03/31 08:40:30;;;;;;;28.25;17.55;;;19.50;41.60;;;;;;5074752;28;20043;-76
2021/03/31 08:42:59;;;;;;;27.92;17.27;;;19.70;40.70;;;;;;5074453;28;20104;-77
2021/03/31 08:45:42;;;;;;;27.85;18.05;;;19.80;40.30;;;;;;5069959;28;20039;-77
2021/03/31 08:48:09;;;;;;;26.30;19.25;;;20.00;40.30;;;;;;5069361;28;20021;-77
2021/03/31 08:50:36;;;;;;;26.85;17.80;;;20.20;40.10;;;;;;5073137;28;20070;-77
2021/03/31 08:53:08;;;;;;;27.30;18.30;;;20.40;40.00;;;;;;5081330;28;20031;-77
2021/03/31 08:55:36;;;;;;;20.17;12.00;;;20.50;39.90;;;;;;5081036;28;20016;-77
2021/03/31 08:58:07;;;;;;;26.40;16.90;;;20.70;44.20;;;;;;5090456;28;20023;-74
2021/03/31 09:00:52;;;;;;;26.38;17.70;;;20.70;41.10;;;;;;5079096;28;20016;-76
2021/03/31 09:03:18;;;;;;;28.85;18.27;;;20.80;39.90;;;;;;5082909;28;20024;-75
2021/03/31 09:05:58;;;;;;;29.15;17.73;;;20.80;39.00;;;;;;5086869;28;20019;-74
2021/03/31 09:08:25;;;;;;;28.77;18.23;;;21.00;42.10;;;;;;5056279;28;20108;-75
2021/03/31 09:10:55;;;;;;;33.83;18.10;;;21.20;40.10;;;;;;5073785;28;20017;-75
2021/03/31 09:13:30;;;;;;;28.60;16.60;;;21.40;43.10;;;;;;5075595;28;20029;-74
2021/03/31 09:15:58;;;;;;;25.55;16.40;;;21.50;45.20;;;;;;5074902;28;20017;-75
2021/03/31 09:18:24;;;;;;;20.58;13.38;;;21.60;40.50;;;;;;5073824;28;20028;-74
2021/03/31 09:20:50;;;;;;;21.67;12.95;;;21.70;39.60;;;;;;5072294;28;20016;-76
2021/03/31 09:23:21;;;;;;;23.58;15.30;;;22.00;40.10;;;;;;5070658;28;20068;-75
2021/03/31 09:25:58;;;;;;;22.25;13.65;;;22.10;39.00;;;;;;5072759;28;20020;-76
2021/03/31 09:28:24;;;;;;;22.80;13.48;;;22.40;39.00;;;;;;5074797;28;20025;-75
2021/03/31 09:30:52;;;;;;;24.63;14.70;;;22.50;38.40;;;;;;5072922;28;20067;-75
2021/03/31 09:33:26;;;;;;;25.40;14.45;;;22.60;41.30;;;;;;5054886;28;20029;-74
2021/03/31 09:35:52;;;;;;;20.85;13.82;;;22.60;47.30;;;;;;5052864;28;20021;-75
2021/03/31 09:38:26;;;;;;;28.38;13.80;;;22.70;43.60;;;;;;5052206;28;20456;-76
2021/03/31 09:41:03;;;;;;;24.30;11.65;;;22.80;44.30;;;;;;5052010;28;20020;-75
2021/03/31 09:43:30;;;;;;;21.90;12.75;;;22.70;42.90;;;;;;5052124;28;20028;-76
2021/03/31 09:45:57;;;;;;;19.80;11.23;;;22.70;45.30;;;;;;5052204;28;20484;-76
2021/03/31 09:48:23;;;;;;;16.13;9.63;;;22.90;45.40;;;;;;5069582;28;20082;-74
2021/03/31 09:50:49;;;;;;;24.50;14.95;;;23.10;48.30;;;;;;5071879;28;20015;-74
2021/03/31 09:53:15;;;;;;;30.60;16.48;;;23.30;45.10;;;;;;5073398;28;20036;-74
2021/03/31 09:55:41;;;;;;;14.85;8.85;;;23.40;42.80;;;;;;5072930;28;20032;-75
2021/03/31 09:58:07;;;;;;;20.83;12.75;;;23.70;45.10;;;;;;5087442;28;20069;-76
2021/03/31 10:00:37;;;;;;;17.42;10.68;;;24.00;41.40;;;;;;5058050;28;20029;-76
2021/03/31 10:03:05;;;;;;;20.35;12.98;;;24.20;43.10;;;;;;5085012;28;20071;-77
2021/03/31 10:05:31;;;;;;;15.98;9.30;;;24.20;45.60;;;;;;5076461;28;20020;-77
2021/03/31 10:07:57;;;;;;;20.52;12.73;;;24.10;47.30;;;;;;5084578;28;20105;-77
2021/03/31 10:10:44;;;;;;;15.27;9.68;;;24.10;46.50;;;;;;5082998;28;20032;-77
2021/03/31 10:13:13;;;;;;;11.00;6.28;;;24.20;48.20;;;;;;5074990;28;20481;-77
2021/03/31 10:15:54;;;;;;;15.40;9.77;;;24.30;51.80;;;;;;5086018;28;20473;-76
2021/03/31 10:18:20;;;;;;;13.48;8.85;;;24.30;49.40;;;;;;5082131;28;20016;-75
2021/03/31 10:20:47;;;;;;;10.48;5.93;;;24.30;48.20;;;;;;5076122;28;20528;-76
2021/03/31 10:23:33;;;;;;;12.85;7.13;;;24.60;50.10;;;;;;5087896;28;20024;-75
2021/03/31 10:26:19;;;;;;;13.70;7.70;;;24.80;52.00;;;;;;5074854;28;20099;-75
2021/03/31 10:28:45;;;;;;;12.95;7.97;;;25.00;49.50;;;;;;5066946;28;20020;-76
2021/03/31 10:31:40;;;;;;;17.80;10.27;;;25.00;49.80;;;;;;5063725;28;20077;-76
2021/03/31 10:34:07;;;;;;;14.02;6.35;;;25.00;47.50;;;;;;5046518;28;20037;-76
2021/03/31 10:48:15;;;;;;;25.85;16.05;;;25.50;48.90;;;;;;5051586;28;20492;-75
2021/03/31 10:53:42;;;;;;;14.82;9.85;;;25.60;53.10;;;;;;5050782;28;20386;-76
2021/03/31 10:56:08;;;;;;;19.52;13.60;;;25.60;49.80;;;;;;5051141;28;20017;-75
2021/03/31 10:58:33;;;;;;;17.58;11.25;;;25.80;42.10;;;;;;5052376;28;20032;-77
2021/03/31 11:00:59;;;;;;;8.85;4.55;;;25.70;41.80;;;;;;5052108;28;20040;-76
2021/03/31 11:03:26;;;;;;;14.90;9.25;;;25.80;51.70;;;;;;5052297;28;20579;-76
2021/03/31 11:05:52;;;;;;;12.98;8.10;;;26.10;46.90;;;;;;5050582;28;20372;-75
2021/03/31 11:08:18;;;;;;;14.05;8.02;;;26.40;47.20;;;;;;5051098;28;20039;-75
2021/03/31 11:10:44;;;;;;;15.10;10.70;;;26.60;49.60;;;;;;5051142;28;20528;-76
2021/03/31 11:13:10;;;;;;;14.77;9.20;;;26.80;41.10;;;;;;5052092;28;20037;-75
2021/03/31 11:15:35;;;;;;;16.88;12.45;;;27.00;43.90;;;;;;5050658;28;20025;-76
2021/03/31 11:20:38;;;;;;;18.35;12.05;;;27.20;37.20;;;;;;5052056;28;20031;-75
2021/03/31 11:28:13;;;;;;;17.15;10.82;;;27.30;44.50;;;;;;5052048;28;20021;-75
2021/03/31 11:30:39;;;;;;;23.13;14.65;;;27.50;43.40;;;;;;5052401;28;20437;-76
2021/03/31 11:33:05;;;;;;;22.13;14.95;;;27.70;42.60;;;;;;5054200;28;20107;-76
2021/03/31 11:35:30;;;;;;;11.88;8.52;;;27.60;40.20;;;;;;5056155;28;20021;-75
2021/03/31 11:37:56;;;;;;;13.82;9.40;;;27.50;45.10;;;;;;5054251;28;20541;-75
2021/03/31 11:40:22;;;;;;;12.73;9.30;;;27.70;43.60;;;;;;5056053;28;20021;-76
2021/03/31 11:42:47;;;;;;;21.48;13.32;;;27.90;42.20;;;;;;5054593;28;20063;-76
2021/03/31 11:45:13;;;;;;;8.73;5.55;;;28.10;39.10;;;;;;5055876;28;20073;-75
2021/03/31 11:47:39;;;;;;;21.35;15.13;;;28.20;46.10;;;;;;5054602;28;20017;-76
2021/03/31 11:50:05;;;;;;;18.42;12.27;;;28.30;39.10;;;;;;5054374;28;20020;-77
2021/03/31 11:52:32;;;;;;;9.65;6.25;;;28.20;36.80;;;;;;5055778;28;20059;-75
2021/03/31 11:54:58;;;;;;;10.60;7.43;;;28.30;47.10;;;;;;5055216;28;20052;-75
2021/03/31 11:57:23;;;;;;;15.40;10.20;;;28.40;43.50;;;;;;5055424;28;20052;-77
2021/03/31 11:59:49;;;;;;;21.95;13.32;;;28.60;40.80;;;;;;5053956;28;20495;-75
2021/03/31 12:02:14;;;;;;;11.35;6.93;;;28.70;34.70;;;;;;5055297;28;20021;-75
2021/03/31 12:04:40;;;;;;;20.75;11.90;;;28.70;42.00;;;;;;5055558;28;20021;-76
2021/03/31 12:07:08;;;;;;;22.00;12.52;;;28.80;39.10;;;;;;5053675;28;20075;-75
2021/03/31 12:09:39;;;;;;;14.75;10.18;;;28.80;36.60;;;;;;5055335;28;20020;-75
2021/03/31 12:12:06;;;;;;;15.40;8.80;;;28.70;36.70;;;;;;5054885;28;20091;-76
2021/03/31 12:14:33;;;;;;;23.15;15.27;;;28.80;45.50;;;;;;5055108;28;20040;-74
2021/03/31 12:16:58;;;;;;;16.77;12.32;;;28.80;31.50;;;;;;5053559;28;20179;-75
2021/03/31 12:19:24;;;;;;;25.15;15.55;;;28.90;34.60;;;;;;5054920;28;20198;-76
2021/03/31 12:21:49;;;;;;;15.85;10.93;;;29.10;31.90;;;;;;5055054;28;20099;-75
2021/03/31 12:24:15;;;;;;;24.08;14.05;;;29.10;45.40;;;;;;5053908;28;20025;-76
2021/03/31 12:26:41;;;;;;;13.40;7.50;;;29.20;38.20;;;;;;5053968;28;20056;-75
2021/03/31 12:29:06;;;;;;;15.82;8.73;;;29.20;40.90;;;;;;5053570;28;20017;-76
2021/03/31 12:31:32;;;;;;;16.52;9.77;;;29.20;42.60;;;;;;5053407;28;20015;-76
2021/03/31 12:33:57;;;;;;;8.40;4.88;;;29.30;36.90;;;;;;5054553;28;20055;-75
2021/03/31 12:36:23;;;;;;;18.08;11.77;;;29.30;50.40;;;;;;5054766;28;20378;-75
2021/03/31 12:38:49;;;;;;;23.67;16.45;;;29.40;37.50;;;;;;5054835;28;20021;-76
2021/03/31 12:41:14;;;;;;;17.95;11.57;;;29.40;33.00;;;;;;5054000;28;20480;-76
2021/03/31 12:43:40;;;;;;;30.50;21.08;;;29.30;39.30;;;;;;5052983;28;20013;-76
2021/03/31 12:46:05;;;;;;;16.50;10.65;;;29.40;29.30;;;;;;5054837;28;20020;-76
2021/03/31 12:48:31;;;;;;;27.10;19.50;;;29.40;35.20;;;;;;5053349;28;20013;-76
2021/03/31 12:51:01;;;;;;;19.67;12.82;;;29.60;29.30;;;;;;5053128;28;20021;-75
2021/03/31 12:53:31;;;;;;;29.52;17.17;;;29.60;39.70;;;;;;5054868;28;20021;-76
2021/03/31 12:55:58;;;;;;;;;;;29.60;37.30;;;;;;5054796;28;20021;-76
2021/03/31 12:58:24;;;;;;;25.85;17.63;;;29.70;53.50;;;;;;5054294;28;20394;-76
2021/03/31 13:00:52;;;;;;;21.17;13.25;;;29.80;41.70;;;;;;5054314;28;20025;-76
2021/03/31 13:03:18;;;;;;;27.80;18.85;;;29.70;41.40;;;;;;5053573;28;20024;-74
2021/03/31 13:05:44;;;;;;;15.60;9.77;;;29.60;34.80;;;;;;5054438;28;20043;-75
2021/03/31 13:08:12;;;;;;;31.08;20.48;;;29.40;41.80;;;;;;5054171;28;20507;-75